Time;durP1;ratioP1;P1;durP2;ratioP2;P2;SDS_P1;SDS_P2;PMS_P1;PMS_P2;Temp;Humidity;BMP_temperature;BMP_pressure;BME280_temperature;BME280_humidity;BME280_pressure;Samples;Min_cycle;Max_cycle;Signal;HPM_P1;HPM_P2
2022/09/20 00:00:26;;;;;;;16.27;6.80;;;9.80;99.90;;;;;;2105503;28;20032;-71
2022/09/20 00:01:31;;;;;;;12.10;6.00;;;9.90;99.90;;;;;;2104523;28;20028;-71
2022/09/20 00:02:32;;;;;;;16.95;6.10;;;9.80;99.90;;;;;;2104877;28;20024;-71
2022/09/20 00:03:37;;;;;;;13.68;5.93;;;9.80;99.90;;;;;;2105207;28;20806;-71
2022/09/20 00:04:38;;;;;;;12.75;5.47;;;9.80;99.90;;;;;;2105460;28;20032;-71
2022/09/20 00:05:42;;;;;;;10.80;4.90;;;9.80;99.90;;;;;;2104691;28;20099;-71
2022/09/20 00:06:42;;;;;;;15.40;4.82;;;9.80;99.90;;;;;;2096760;28;20021;-72
2022/09/20 00:07:44;;;;;;;9.77;4.10;;;9.70;99.90;;;;;;2104676;28;20098;-72
2022/09/20 00:08:45;;;;;;;9.00;3.70;;;9.70;99.90;;;;;;2105411;28;20024;-71
2022/09/20 00:09:46;;;;;;;11.48;4.30;;;9.60;99.90;;;;;;2104888;28;20040;-71
2022/09/20 00:10:47;;;;;;;9.32;3.80;;;9.60;99.90;;;;;;2096364;28;20147;-71
2022/09/20 00:11:47;;;;;;;8.23;3.60;;;9.60;99.90;;;;;;2104762;28;20052;-71
2022/09/20 00:12:48;;;;;;;5.15;3.20;;;9.60;99.90;;;;;;2105344;28;20038;-71
2022/09/20 00:13:51;;;;;;;8.13;3.40;;;9.60;99.90;;;;;;2105427;28;20083;-71
2022/09/20 00:14:52;;;;;;;9.98;3.65;;;9.60;99.90;;;;;;2105616;28;20107;-70
2022/09/20 00:15:53;;;;;;;9.80;3.42;;;9.60;99.90;;;;;;2105186;28;20028;-70
2022/09/20 00:16:53;;;;;;;6.88;3.70;;;9.60;99.90;;;;;;2105274;28;20032;-70
2022/09/20 00:17:54;;;;;;;6.82;3.78;;;9.60;99.90;;;;;;2104651;28;20074;-70
2022/09/20 00:18:57;;;;;;;6.65;3.30;;;9.60;99.90;;;;;;2104604;28;20111;-70
2022/09/20 00:19:57;;;;;;;5.75;3.28;;;9.50;99.90;;;;;;2105226;28;20051;-70
2022/09/20 00:20:58;;;;;;;5.20;3.28;;;9.60;99.90;;;;;;2110039;28;20015;-71
2022/09/20 00:21:59;;;;;;;4.93;3.35;;;9.60;99.90;;;;;;2108271;27;20020;-71
2022/09/20 00:22:59;;;;;;;4.55;3.30;;;9.60;99.90;;;;;;2110364;28;20019;-70
2022/09/20 00:24:01;;;;;;;4.07;3.40;;;9.60;99.90;;;;;;2113639;28;20623;-72
2022/09/20 00:25:02;;;;;;;7.10;3.58;;;9.60;99.90;;;;;;2113563;28;20019;-70
2022/09/20 00:26:03;;;;;;;5.43;3.70;;;9.70;99.90;;;;;;2113592;28;20028;-70
2022/09/20 00:27:04;;;;;;;7.22;3.70;;;9.60;99.90;;;;;;2113848;28;20506;-71
2022/09/20 00:28:06;;;;;;;8.48;4.38;;;9.70;99.90;;;;;;2113675;28;20111;-70
2022/09/20 00:29:07;;;;;;;8.20;4.35;;;9.70;99.90;;;;;;2113563;28;20391;-71
2022/09/20 00:30:08;;;;;;;7.72;4.15;;;9.70;99.90;;;;;;2112630;28;20031;-70
2022/09/20 00:31:10;;;;;;;8.40;4.57;;;9.70;99.90;;;;;;2113014;28;20121;-70
2022/09/20 00:32:11;;;;;;;7.07;3.80;;;9.70;99.90;;;;;;2112442;28;20580;-70
2022/09/20 00:33:12;;;;;;;5.07;3.63;;;9.70;99.90;;;;;;2113041;28;20035;-70
2022/09/20 00:35:32;;;;;;;8.88;3.97;;;9.70;99.90;;;;;;2097984;28;20094;-70
2022/09/20 00:36:32;;;;;;;5.53;3.58;;;9.80;99.90;;;;;;2105123;28;20028;-71
2022/09/20 00:37:34;;;;;;;5.93;3.70;;;9.80;99.90;;;;;;2104825;28;20118;-70
2022/09/20 00:38:35;;;;;;;5.95;3.90;;;9.80;99.90;;;;;;2104700;28;20612;-71
2022/09/20 00:39:35;;;;;;;4.93;3.50;;;9.80;99.90;;;;;;2105134;28;20043;-70
2022/09/20 00:40:36;;;;;;;5.18;3.38;;;9.80;99.90;;;;;;2104489;28;20024;-70
2022/09/20 00:41:37;;;;;;;3.90;3.38;;;9.90;99.90;;;;;;2095918;28;20059;-70
2022/09/20 00:42:38;;;;;;;5.25;3.40;;;9.90;99.90;;;;;;2104144;28;20036;-71
2022/09/20 00:43:42;;;;;;;5.00;4.03;;;9.90;99.90;;;;;;2105051;28;20615;-71
2022/09/20 00:45:00;;;;;;;5.72;3.60;;;9.90;99.90;;;;;;2105030;28;20394;-70
2022/09/20 00:46:02;;;;;;;4.43;3.47;;;9.80;99.90;;;;;;2104987;28;20123;-71
2022/09/20 00:47:04;;;;;;;5.82;3.80;;;9.80;99.90;;;;;;2104121;28;20052;-70
2022/09/20 00:48:28;;;;;;;5.53;3.67;;;9.80;99.90;;;;;;2104462;28;20177;-71
2022/09/20 00:49:29;;;;;;;5.57;3.60;;;9.80;99.90;;;;;;2104586;28;20035;-71
2022/09/20 00:50:33;;;;;;;7.72;4.20;;;9.80;99.90;;;;;;2104333;28;20055;-71
2022/09/20 00:51:39;;;;;;;6.57;4.03;;;9.80;99.90;;;;;;2104144;28;20028;-71
2022/09/20 00:52:44;;;;;;;5.22;4.15;;;9.80;99.90;;;;;;2096630;28;20414;-71
2022/09/20 00:53:49;;;;;;;5.57;4.28;;;9.80;99.90;;;;;;2104394;28;20035;-71
2022/09/20 00:54:50;;;;;;;7.40;4.78;;;9.80;99.90;;;;;;2102136;28;20465;-72
2022/09/20 00:56:04;;;;;;;11.35;5.63;;;9.80;99.90;;;;;;2104815;28;20028;-71
2022/09/20 00:57:05;;;;;;;7.20;4.55;;;9.80;99.90;;;;;;2105034;28;20551;-71
2022/09/20 00:58:06;;;;;;;9.60;4.97;;;9.80;99.90;;;;;;2104941;28;20056;-71
2022/09/20 00:59:21;;;;;;;6.72;4.55;;;9.80;99.90;;;;;;2104849;28;20032;-72
2022/09/20 01:00:22;;;;;;;5.93;4.43;;;9.80;99.90;;;;;;2105027;28;20735;-71
2022/09/20 01:01:23;;;;;;;6.32;4.43;;;9.80;99.90;;;;;;2104124;28;20024;-71
2022/09/20 01:02:28;;;;;;;9.23;5.80;;;9.80;99.90;;;;;;2104412;28;20021;-71
2022/09/20 01:03:30;;;;;;;6.05;4.90;;;9.80;99.90;;;;;;2104917;28;20024;-71
2022/09/20 01:04:34;;;;;;;7.50;4.97;;;9.90;99.90;;;;;;2105181;28;20053;-71
2022/09/20 01:05:37;;;;;;;6.90;4.80;;;9.90;99.90;;;;;;2104933;28;20416;-71
2022/09/20 01:06:38;;;;;;;7.13;4.63;;;9.90;99.90;;;;;;2105059;28;20425;-71
2022/09/20 01:07:41;;;;;;;8.35;5.00;;;9.90;99.90;;;;;;2105029;28;20024;-71
2022/09/20 01:08:47;;;;;;;8.85;5.25;;;9.90;99.90;;;;;;2104351;28;20022;-71
2022/09/20 01:09:48;;;;;;;7.25;4.97;;;9.90;99.90;;;;;;2104366;28;20086;-71
2022/09/20 01:10:50;;;;;;;9.32;5.20;;;9.90;99.90;;;;;;2104947;28;20059;-71
2022/09/20 01:11:54;;;;;;;8.93;5.53;;;9.90;99.90;;;;;;2095713;28;20025;-71
2022/09/20 01:12:55;;;;;;;8.73;5.18;;;9.90;99.90;;;;;;2096384;28;20063;-71
2022/09/20 01:13:56;;;;;;;6.63;4.60;;;9.90;99.90;;;;;;2104728;28;20035;-73
2022/09/20 01:14:59;;;;;;;7.45;4.90;;;9.90;99.90;;;;;;2104546;28;20085;-70
2022/09/20 01:16:01;;;;;;;9.55;4.60;;;9.90;99.90;;;;;;2096553;28;20028;-71
2022/09/20 01:17:04;;;;;;;6.35;4.65;;;9.90;99.90;;;;;;2105017;28;20413;-71
2022/09/20 01:18:08;;;;;;;7.78;4.55;;;9.90;99.90;;;;;;2111271;28;20032;-70
2022/09/20 01:19:19;;;;;;;11.15;4.80;;;9.90;99.90;;;;;;2107022;28;20055;-71
2022/09/20 01:20:26;;;;;;;6.00;4.25;;;9.90;99.90;;;;;;2112730;28;20501;-71
2022/09/20 01:21:28;;;;;;;7.20;4.25;;;9.90;99.90;;;;;;2112953;28;20027;-71
2022/09/20 01:22:59;;;;;;;6.30;4.22;;;9.90;99.90;;;;;;2112889;28;20073;-71
2022/09/20 01:24:15;;;;;;;9.98;4.70;;;9.90;99.90;;;;;;2113640;28;20023;-71
2022/09/20 01:25:43;;;;;;;6.15;3.95;;;9.80;99.90;;;;;;2113575;28;20112;-71
2022/09/20 01:27:19;;;;;;;5.75;4.15;;;9.80;99.90;;;;;;2113272;28;20103;-71
2022/09/20 01:28:21;;;;;;;5.10;3.60;;;9.90;99.90;;;;;;2103446;28;20413;-71
2022/09/20 01:29:38;;;;;;;5.32;3.75;;;9.90;99.90;;;;;;2103707;28;20138;-70
2022/09/20 01:31:03;;;;;;;8.05;4.20;;;9.90;99.90;;;;;;2099481;28;20086;-70
2022/09/20 01:32:11;;;;;;;4.13;3.42;;;9.90;99.90;;;;;;2104429;28;20548;-70
2022/09/20 01:33:17;;;;;;;11.02;4.47;;;9.90;99.90;;;;;;2104097;28;20020;-71
2022/09/20 01:34:30;;;;;;;6.43;4.00;;;9.90;99.90;;;;;;2096416;28;20029;-70
2022/09/20 01:35:34;;;;;;;7.65;3.85;;;9.90;99.90;;;;;;2096076;28;20119;-70
2022/09/20 01:36:46;;;;;;;5.40;3.53;;;9.90;99.90;;;;;;2087429;28;20124;-71
2022/09/20 01:38:41;;;;;;;5.32;3.53;;;9.90;99.90;;;;;;2089125;28;20064;-71
2022/09/20 01:39:53;;;;;;;6.65;4.20;;;9.90;99.90;;;;;;2095212;28;20569;-71
2022/09/20 01:41:04;;;;;;;5.55;4.00;;;9.90;99.90;;;;;;2095289;28;20028;-70
2022/09/20 01:42:08;;;;;;;10.60;4.68;;;9.80;99.90;;;;;;2095158;28;20591;-71
2022/09/20 01:43:19;;;;;;;9.40;5.00;;;9.90;99.90;;;;;;2095494;28;20020;-70
2022/09/20 01:44:43;;;;;;;5.55;4.40;;;9.80;99.90;;;;;;2088771;28;20036;-72
2022/09/20 01:45:48;;;;;;;16.08;5.97;;;9.80;99.90;;;;;;2095857;28;20513;-71
2022/09/20 01:46:59;;;;;;;9.90;5.43;;;9.70;99.90;;;;;;2099721;28;20016;-71
2022/09/20 01:48:25;;;;;;;11.00;5.72;;;9.70;99.90;;;;;;2104533;28;20382;-71
2022/09/20 01:49:35;;;;;;;15.07;6.25;;;9.70;99.90;;;;;;2104548;28;20020;-71
2022/09/20 01:51:00;;;;;;;13.50;5.93;;;9.70;99.90;;;;;;2103061;28;20028;-71
2022/09/20 01:52:39;;;;;;;12.73;6.05;;;9.60;99.90;;;;;;2103911;28;20026;-71
2022/09/20 01:53:52;;;;;;;9.95;5.80;;;9.70;99.90;;;;;;2104811;28;20035;-71
2022/09/20 01:55:36;;;;;;;10.95;5.38;;;9.70;99.90;;;;;;2104604;28;20032;-71
2022/09/20 01:56:56;;;;;;;13.90;6.80;;;9.70;99.90;;;;;;2104815;28;20504;-71
2022/09/20 01:58:29;;;;;;;11.82;6.55;;;9.70;99.90;;;;;;2104032;28;20028;-71
2022/09/20 01:59:53;;;;;;;12.40;7.28;;;9.70;99.90;;;;;;2104553;28;20475;-71
2022/09/20 02:01:12;;;;;;;21.02;7.80;;;9.70;99.90;;;;;;2104296;28;20101;-71
2022/09/20 02:02:37;;;;;;;16.48;7.50;;;9.70;99.90;;;;;;2104106;28;20027;-72
2022/09/20 02:03:49;;;;;;;14.85;7.82;;;9.70;99.90;;;;;;2104808;28;20032;-71
2022/09/20 02:05:13;;;;;;;13.57;7.75;;;9.60;99.90;;;;;;2104551;28;20043;-71
2022/09/20 02:06:39;;;;;;;11.55;6.55;;;9.60;99.90;;;;;;2103633;28;20028;-71
2022/09/20 02:07:58;;;;;;;10.02;6.72;;;9.60;99.90;;;;;;2098233;28;20085;-71
2022/09/20 02:09:12;;;;;;;12.85;7.32;;;9.60;99.90;;;;;;2095211;28;20017;-71
2022/09/20 02:10:37;;;;;;;15.43;8.23;;;9.70;99.90;;;;;;2097364;28;20028;-71
2022/09/20 02:11:58;;;;;;;13.73;7.05;;;9.60;99.90;;;;;;2103620;28;20166;-71
2022/09/20 02:13:03;;;;;;;22.50;8.85;;;9.60;99.90;;;;;;2104440;28;20035;-71
2022/09/20 02:14:42;;;;;;;22.52;9.30;;;9.60;99.90;;;;;;2110398;28;20083;-72
2022/09/20 02:16:02;;;;;;;14.73;7.60;;;9.60;99.90;;;;;;2101969;28;20039;-71
2022/09/20 02:17:20;;;;;;;12.75;7.47;;;9.60;99.90;;;;;;2113039;28;20027;-72
2022/09/20 02:18:43;;;;;;;11.95;7.25;;;9.60;99.90;;;;;;2112944;28;20032;-72
2022/09/20 02:19:50;;;;;;;13.32;7.60;;;9.60;99.90;;;;;;2112792;28;20059;-71
2022/09/20 02:21:12;;;;;;;14.90;8.00;;;9.70;99.90;;;;;;2112916;28;20027;-71
2022/09/20 02:22:30;;;;;;;15.20;8.13;;;9.60;99.90;;;;;;2112812;28;20541;-72
2022/09/20 02:23:47;;;;;;;12.05;7.22;;;9.60;99.90;;;;;;2112223;28;20028;-72
2022/09/20 02:24:56;;;;;;;13.18;7.40;;;9.60;99.90;;;;;;2106031;28;20115;-71
2022/09/20 02:26:18;;;;;;;11.52;6.43;;;9.70;99.90;;;;;;2104818;28;20028;-72
2022/09/20 02:27:24;;;;;;;10.63;6.32;;;9.70;99.90;;;;;;2103489;28;20028;-72
2022/09/20 02:29:15;;;;;;;9.35;6.25;;;9.60;99.90;;;;;;2099449;28;20031;-71
2022/09/20 02:30:15;;;;;;;11.23;6.80;;;9.70;99.90;;;;;;2104384;28;20089;-72
2022/09/20 02:31:44;;;;;;;15.75;7.47;;;9.60;99.90;;;;;;2104305;28;20099;-71
2022/09/20 02:33:27;;;;;;;15.20;7.43;;;9.60;99.90;;;;;;2104369;28;20042;-72
2022/09/20 02:34:49;;;;;;;14.50;7.50;;;9.60;99.90;;;;;;2104390;28;20409;-71
2022/09/20 02:36:34;;;;;;;12.15;6.60;;;9.60;99.90;;;;;;2103920;28;20036;-72
2022/09/20 02:37:50;;;;;;;15.57;7.32;;;9.60;99.90;;;;;;2100760;28;20101;-72
2022/09/20 02:39:14;;;;;;;11.55;6.03;;;9.60;99.90;;;;;;2103879;28;20057;-71
2022/09/20 02:40:43;;;;;;;8.93;5.75;;;9.60;99.90;;;;;;2104067;28;20516;-71
2022/09/20 02:42:03;;;;;;;9.60;5.45;;;9.60;99.90;;;;;;2103435;28;20540;-73
2022/09/20 02:43:04;;;;;;;12.00;6.35;;;9.60;99.90;;;;;;2104192;28;20032;-72
2022/09/20 02:44:33;;;;;;;8.85;5.95;;;9.60;99.90;;;;;;2104482;28;20028;-72
2022/09/20 02:45:40;;;;;;;6.85;5.57;;;9.60;99.90;;;;;;2104413;28;20039;-71
2022/09/20 02:46:52;;;;;;;7.68;5.53;;;9.60;99.90;;;;;;2102752;28;20436;-72
2022/09/20 02:48:00;;;;;;;11.05;6.38;;;9.60;99.90;;;;;;2100224;28;20456;-72
2022/09/20 02:49:15;;;;;;;14.10;6.70;;;9.60;99.90;;;;;;2104377;28;20570;-72
2022/09/20 02:50:49;;;;;;;11.85;7.25;;;9.70;99.90;;;;;;2104429;28;20028;-72
2022/09/20 02:52:27;;;;;;;11.07;7.20;;;9.60;99.90;;;;;;2103922;28;20398;-73
2022/09/20 02:53:52;;;;;;;21.17;8.48;;;9.60;99.90;;;;;;2105242;28;20078;-72
2022/09/20 02:55:19;;;;;;;13.25;7.40;;;9.60;99.90;;;;;;2106205;28;20032;-72
2022/09/20 02:56:40;;;;;;;13.98;7.60;;;9.60;99.90;;;;;;2107945;28;20044;-72
2022/09/20 02:57:50;;;;;;;13.68;7.03;;;9.60;99.90;;;;;;2109178;28;20061;-72
2022/09/20 02:58:58;;;;;;;13.07;7.40;;;9.60;99.90;;;;;;2108673;28;20098;-71
2022/09/20 03:00:11;;;;;;;12.27;7.07;;;9.60;99.90;;;;;;2108767;28;20532;-72
2022/09/20 03:01:34;;;;;;;9.73;6.90;;;9.60;99.90;;;;;;2109594;28;20012;-71
2022/09/20 03:03:03;;;;;;;11.70;6.68;;;9.60;99.90;;;;;;2103911;28;20439;-71
2022/09/20 03:04:21;;;;;;;20.55;8.85;;;9.70;99.90;;;;;;2110043;28;20035;-72
2022/09/20 03:06:01;;;;;;;11.82;7.22;;;9.60;99.90;;;;;;2109665;28;20024;-71
2022/09/20 03:07:12;;;;;;;12.38;7.10;;;9.60;99.90;;;;;;2105709;28;20440;-72
2022/09/20 03:08:43;;;;;;;11.80;7.70;;;9.60;99.90;;;;;;2105710;28;20028;-72
2022/09/20 03:10:08;;;;;;;13.27;7.97;;;9.60;99.90;;;;;;2108950;28;20072;-72
2022/09/20 03:11:26;;;;;;;10.88;7.05;;;9.50;99.90;;;;;;2107289;28;20394;-72
2022/09/20 03:12:58;;;;;;;12.63;7.30;;;9.50;99.90;;;;;;2097391;28;20548;-72
2022/09/20 03:14:21;;;;;;;10.35;7.57;;;9.50;99.90;;;;;;2097436;28;20479;-72
2022/09/20 03:15:44;;;;;;;20.15;10.02;;;9.50;99.90;;;;;;2097139;28;20096;-72
2022/09/20 03:17:12;;;;;;;15.40;8.82;;;9.50;99.90;;;;;;2091571;28;20032;-72
2022/09/20 03:18:22;;;;;;;19.15;9.95;;;9.50;99.90;;;;;;2098053;28;20021;-72
2022/09/20 03:19:40;;;;;;;21.63;9.90;;;9.50;99.90;;;;;;2098995;28;20111;-73
2022/09/20 03:20:59;;;;;;;17.55;9.13;;;9.40;99.90;;;;;;2099145;28;20028;-72
2022/09/20 03:22:05;;;;;;;15.45;8.35;;;9.40;99.90;;;;;;2098251;28;20046;-71
2022/09/20 03:23:31;;;;;;;15.45;7.93;;;9.40;99.90;;;;;;2104991;28;20032;-71
2022/09/20 03:24:58;;;;;;;21.70;10.13;;;9.40;99.90;;;;;;2100764;28;20024;-72
2022/09/20 03:26:30;;;;;;;20.05;9.85;;;9.40;99.90;;;;;;2089754;28;20033;-73
2022/09/20 03:27:58;;;;;;;17.20;8.93;;;9.40;99.90;;;;;;2099337;28;20028;-71
2022/09/20 03:29:08;;;;;;;23.50;9.43;;;9.40;99.90;;;;;;2098192;28;20024;-72
2022/09/20 03:30:33;;;;;;;22.50;9.97;;;9.40;99.90;;;;;;2098861;28;20048;-72
2022/09/20 03:31:59;;;;;;;29.13;11.00;;;9.40;99.90;;;;;;2098788;28;20306;-72
2022/09/20 03:33:11;;;;;;;29.23;10.93;;;9.40;99.90;;;;;;2097460;28;20056;-72
2022/09/20 03:34:56;;;;;;;20.15;9.30;;;9.40;99.90;;;;;;2096997;28;20040;-72
2022/09/20 03:36:23;;;;;;;25.98;10.05;;;9.30;99.90;;;;;;2097329;28;20111;-72
2022/09/20 03:37:35;;;;;;;21.02;9.27;;;9.30;99.90;;;;;;2097542;28;20052;-72
2022/09/20 03:39:00;;;;;;;17.15;8.50;;;9.30;99.90;;;;;;2097149;28;20035;-72
2022/09/20 03:40:21;;;;;;;20.50;7.93;;;9.20;99.90;;;;;;2097308;28;20096;-72
2022/09/20 03:41:53;;;;;;;28.25;9.45;;;9.30;99.90;;;;;;2097159;28;20487;-73
2022/09/20 03:43:03;;;;;;;18.65;8.98;;;9.20;99.90;;;;;;2087712;28;20452;-73
2022/09/20 03:44:07;;;;;;;16.55;8.77;;;9.20;99.90;;;;;;2103251;28;20035;-73
2022/09/20 03:45:29;;;;;;;19.48;9.00;;;9.20;99.90;;;;;;2105587;28;20055;-73
2022/09/20 03:46:56;;;;;;;12.02;7.30;;;9.20;99.90;;;;;;2105378;28;20024;-73
2022/09/20 03:48:48;;;;;;;14.25;7.10;;;9.20;99.90;;;;;;2105668;28;20028;-73
2022/09/20 03:50:10;;;;;;;12.25;6.90;;;9.20;99.90;;;;;;2097219;28;20063;-76
2022/09/20 03:51:25;;;;;;;11.90;7.18;;;9.30;99.90;;;;;;2106480;28;20027;-75
2022/09/20 03:53:03;;;;;;;13.23;7.85;;;9.30;99.90;;;;;;2106577;28;20053;-74
2022/09/20 03:54:37;;;;;;;14.70;7.75;;;9.30;99.90;;;;;;2100103;28;20048;-76
2022/09/20 03:56:05;;;;;;;12.38;7.90;;;9.30;99.90;;;;;;2093652;28;20096;-75
2022/09/20 03:57:43;;;;;;;12.65;7.25;;;9.30;99.90;;;;;;2101746;28;20032;-75
2022/09/20 03:59:12;;;;;;;25.58;10.93;;;9.30;99.90;;;;;;2105752;28;20091;-75
2022/09/20 04:00:46;;;;;;;16.83;9.18;;;9.30;99.90;;;;;;2106104;28;20513;-75
2022/09/20 04:02:09;;;;;;;15.98;8.85;;;9.30;99.90;;;;;;2106177;28;20016;-76
2022/09/20 04:03:33;;;;;;;14.40;8.90;;;9.30;99.90;;;;;;2106527;28;20020;-77
2022/09/20 04:04:57;;;;;;;14.00;8.35;;;9.30;99.90;;;;;;2103597;28;20062;-76
2022/09/20 04:06:09;;;;;;;21.33;11.52;;;9.40;99.90;;;;;;2111333;28;20024;-77
2022/09/20 04:08:14;;;;;;;18.02;9.90;;;9.40;99.90;;;;;;2114011;28;20015;-78
2022/09/20 04:09:52;;;;;;;13.70;9.20;;;9.40;99.90;;;;;;2063954;28;20819;-75
2022/09/20 04:11:27;;;;;;;19.13;10.68;;;9.40;99.90;;;;;;2073095;28;20072;-75
2022/09/20 04:12:29;;;;;;;30.23;12.98;;;9.40;99.90;;;;;;2097768;28;20077;-75
2022/09/20 04:13:43;;;;;;;19.08;11.10;;;9.40;99.90;;;;;;2097677;28;20069;-76
2022/09/20 04:14:56;;;;;;;24.13;11.60;;;9.40;99.90;;;;;;2097161;28;20037;-74
2022/09/20 04:16:36;;;;;;;19.38;11.45;;;9.40;99.90;;;;;;2096935;28;20035;-75
2022/09/20 04:18:14;;;;;;;20.58;10.98;;;9.40;99.90;;;;;;2097871;28;20036;-75
2022/09/20 04:19:24;;;;;;;20.85;11.43;;;9.40;99.90;;;;;;2103694;28;20662;-75
2022/09/20 04:20:49;;;;;;;22.65;12.63;;;9.40;99.90;;;;;;2097644;28;20062;-76
2022/09/20 04:21:57;;;;;;;28.60;13.70;;;9.40;99.90;;;;;;2101726;28;20028;-74
2022/09/20 04:23:07;;;;;;;25.58;13.30;;;9.50;99.90;;;;;;2105089;28;20051;-76
2022/09/20 04:24:11;;;;;;;;;;;9.50;99.90;;;;;;2105642;28;20028;-74
2022/09/20 04:25:14;;;;;;;24.35;12.93;;;9.50;99.90;;;;;;2105898;28;20297;-75
2022/09/20 04:26:24;;;;;;;20.63;12.90;;;9.50;99.90;;;;;;2105083;28;20378;-73
2022/09/20 04:27:47;;;;;;;23.15;12.18;;;9.50;99.90;;;;;;2105669;28;20408;-76
2022/09/20 04:29:13;;;;;;;19.38;11.57;;;9.50;99.90;;;;;;2106182;28;20052;-76
2022/09/20 04:30:20;;;;;;;21.20;12.07;;;9.50;99.90;;;;;;2105916;28;20036;-75
2022/09/20 04:31:39;;;;;;;20.80;12.48;;;9.60;99.90;;;;;;2105579;28;20038;-76
2022/09/20 04:32:55;;;;;;;28.58;13.23;;;9.60;99.90;;;;;;2105768;28;20042;-74
2022/09/20 04:33:59;;;;;;;26.30;13.32;;;9.60;99.90;;;;;;2104851;28;20024;-75
2022/09/20 04:37:04;;;;;;;23.60;12.93;;;9.50;99.90;;;;;;2105715;28;20471;-75
2022/09/20 04:38:12;;;;;;;23.25;12.75;;;9.50;99.90;;;;;;2105475;28;20048;-76
2022/09/20 04:39:37;;;;;;;22.77;12.55;;;9.50;99.90;;;;;;2104930;28;20083;-75
2022/09/20 04:41:15;;;;;;;21.50;13.13;;;9.50;99.90;;;;;;2099558;28;20036;-74
2022/09/20 04:42:41;;;;;;;26.17;13.02;;;9.60;99.90;;;;;;2101486;28;20162;-75
2022/09/20 04:43:51;;;;;;;31.77;13.98;;;9.60;99.90;;;;;;2091816;28;20100;-75
2022/09/20 04:45:16;;;;;;;25.63;13.57;;;9.60;99.90;;;;;;2090568;28;20048;-74
2022/09/20 04:46:32;;;;;;;37.22;15.90;;;9.60;99.90;;;;;;2099857;28;20031;-74
2022/09/20 04:48:01;;;;;;;30.60;15.15;;;9.60;99.90;;;;;;2096730;28;20108;-75
2022/09/20 04:49:09;;;;;;;22.70;13.70;;;9.60;99.90;;;;;;2096606;28;20040;-76
2022/09/20 04:50:43;;;;;;;21.80;12.98;;;9.60;99.90;;;;;;2096666;28;20021;-74
2022/09/20 04:52:05;;;;;;;36.92;16.10;;;9.60;99.90;;;;;;2096406;28;20039;-75
2022/09/20 04:53:42;;;;;;;31.70;15.18;;;9.60;99.90;;;;;;2082779;28;20036;-73
2022/09/20 04:55:14;;;;;;;38.67;15.85;;;9.60;99.90;;;;;;2098790;28;20068;-74
2022/09/20 04:56:40;;;;;;;43.47;15.25;;;9.50;99.90;;;;;;2105087;28;20400;-74
2022/09/20 04:58:15;;;;;;;26.65;13.10;;;9.50;99.90;;;;;;2097434;28;20485;-75
2022/09/20 04:59:54;;;;;;;37.45;14.23;;;9.50;99.90;;;;;;2098020;28;20103;-74
2022/09/20 05:01:15;;;;;;;30.75;13.68;;;9.50;99.90;;;;;;2105371;28;20027;-74
2022/09/20 05:02:50;;;;;;;25.92;12.38;;;9.50;99.90;;;;;;2105445;28;20040;-74
2022/09/20 05:04:09;;;;;;;24.00;11.93;;;9.50;99.90;;;;;;2104982;28;20030;-74
2022/09/20 05:05:34;;;;;;;22.67;11.30;;;9.50;99.90;;;;;;2107108;28;20050;-73
2022/09/20 05:06:56;;;;;;;22.45;11.57;;;9.50;99.90;;;;;;2095733;28;20036;-74
2022/09/20 05:08:09;;;;;;;21.25;11.48;;;9.50;99.90;;;;;;2104355;28;20086;-74
2022/09/20 05:09:37;;;;;;;19.27;10.88;;;9.50;99.90;;;;;;2104839;28;20060;-74
2022/09/20 05:11:36;;;;;;;17.45;10.20;;;9.50;99.90;;;;;;2104485;28;20028;-73
2022/09/20 05:12:49;;;;;;;35.33;13.18;;;9.50;99.90;;;;;;2094660;28;20040;-74
2022/09/20 05:14:11;;;;;;;25.17;12.27;;;9.50;99.90;;;;;;2095858;28;20054;-73
2022/09/20 05:15:15;;;;;;;23.50;10.88;;;9.50;99.90;;;;;;2095679;28;20032;-74
2022/09/20 05:16:37;;;;;;;21.80;10.82;;;9.50;99.90;;;;;;2087138;28;20079;-74
2022/09/20 05:17:46;;;;;;;18.38;10.07;;;9.60;99.90;;;;;;2091542;28;20118;-75
2022/09/20 05:18:58;;;;;;;26.35;12.90;;;9.60;99.90;;;;;;2105044;28;20126;-75
2022/09/20 05:20:26;;;;;;;25.42;11.73;;;9.60;99.90;;;;;;2104924;28;20095;-74
2022/09/20 05:21:48;;;;;;;19.00;11.00;;;9.60;99.90;;;;;;2104469;28;20390;-74
2022/09/20 05:23:10;;;;;;;24.75;11.40;;;9.60;99.90;;;;;;2104669;28;20019;-74
2022/09/20 05:24:29;;;;;;;29.13;13.45;;;9.60;99.90;;;;;;2105112;28;20195;-75
2022/09/20 05:25:33;;;;;;;37.35;13.65;;;9.50;99.90;;;;;;2104975;28;20032;-74
2022/09/20 05:27:00;;;;;;;21.05;12.35;;;9.50;99.90;;;;;;2104165;28;20031;-73
2022/09/20 05:28:18;;;;;;;28.58;12.65;;;9.50;99.90;;;;;;2091443;28;20700;-74
2022/09/20 05:29:41;;;;;;;22.98;12.90;;;9.50;99.90;;;;;;2105948;28;20471;-75
2022/09/20 05:30:47;;;;;;;24.25;12.32;;;9.50;99.90;;;;;;2105978;28;20039;-74
2022/09/20 05:32:22;;;;;;;29.52;13.02;;;9.50;99.90;;;;;;2103649;28;20039;-74
2022/09/20 05:33:36;;;;;;;24.52;12.00;;;9.50;99.90;;;;;;2096739;28;20579;-74
2022/09/20 05:35:08;;;;;;;23.13;12.20;;;9.50;99.90;;;;;;2096932;28;20039;-74
2022/09/20 05:36:40;;;;;;;24.83;12.40;;;9.50;99.90;;;;;;2104342;28;20031;-74
2022/09/20 05:37:59;;;;;;;32.80;14.20;;;9.50;99.90;;;;;;2105574;28;20545;-74
2022/09/20 05:39:23;;;;;;;33.22;13.75;;;9.50;99.90;;;;;;2105208;28;20115;-73
2022/09/20 05:40:29;;;;;;;27.02;13.85;;;9.50;99.90;;;;;;2104786;28;20032;-73
2022/09/20 05:42:12;;;;;;;36.92;15.43;;;9.60;99.90;;;;;;2104498;28;20445;-73
2022/09/20 05:43:34;;;;;;;24.08;13.50;;;9.60;99.90;;;;;;2096070;28;20028;-75
2022/09/20 05:44:40;;;;;;;26.48;13.13;;;9.60;99.90;;;;;;2104486;28;20093;-75
2022/09/20 05:46:15;;;;;;;25.45;13.30;;;9.60;99.90;;;;;;2104389;28;20448;-75
2022/09/20 05:47:30;;;;;;;24.80;13.00;;;9.60;99.90;;;;;;2104937;28;20026;-75
2022/09/20 05:48:56;;;;;;;23.60;13.50;;;9.70;99.90;;;;;;2104786;28;20082;-74
2022/09/20 05:49:59;;;;;;;23.73;12.82;;;9.70;99.90;;;;;;2099052;28;20071;-73
2022/09/20 05:51:20;;;;;;;27.73;14.27;;;9.80;99.90;;;;;;2103949;28;20742;-73
2022/09/20 05:52:25;;;;;;;26.45;13.70;;;9.70;99.90;;;;;;2104154;28;20036;-72
2022/09/20 05:53:35;;;;;;;25.48;14.02;;;9.80;99.90;;;;;;2087993;28;20040;-72
2022/09/20 05:54:38;;;;;;;26.75;13.75;;;9.80;99.90;;;;;;2095768;28;20043;-73
2022/09/20 05:56:03;;;;;;;35.40;15.30;;;9.80;99.90;;;;;;2096136;28;20067;-74
2022/09/20 05:57:16;;;;;;;38.88;15.77;;;9.80;99.90;;;;;;2096043;28;20052;-73
2022/09/20 05:58:46;;;;;;;66.20;19.17;;;9.80;99.90;;;;;;2103977;28;20074;-72
2022/09/20 06:00:13;;;;;;;38.05;16.73;;;9.80;99.90;;;;;;2110092;28;20071;-73
2022/09/20 06:01:23;;;;;;;40.28;16.33;;;9.70;99.90;;;;;;2111970;28;20072;-73
2022/09/20 06:02:58;;;;;;;51.13;17.98;;;9.70;99.90;;;;;;2113186;28;20032;-73
2022/09/20 06:04:18;;;;;;;36.63;15.77;;;9.70;99.90;;;;;;2113256;28;20028;-74
2022/09/20 06:05:52;;;;;;;33.42;15.77;;;9.80;99.90;;;;;;2113104;28;20038;-74
2022/09/20 06:07:16;;;;;;;52.97;18.42;;;9.80;99.90;;;;;;2112870;28;20030;-74
2022/09/20 06:08:45;;;;;;;46.97;17.52;;;9.80;99.90;;;;;;2112843;28;20024;-74
2022/09/20 06:10:18;;;;;;;31.83;15.98;;;9.70;99.90;;;;;;2113226;28;20023;-73
2022/09/20 06:11:37;;;;;;;39.55;16.23;;;9.80;99.90;;;;;;2108703;28;21052;-75
2022/09/20 06:13:10;;;;;;;29.90;15.25;;;9.80;99.90;;;;;;2104617;28;20131;-75
2022/09/20 06:14:19;;;;;;;29.75;15.50;;;9.90;99.90;;;;;;2091763;28;20075;-76
2022/09/20 06:15:25;;;;;;;31.27;15.20;;;9.90;99.90;;;;;;2104912;28;20024;-73
2022/09/20 06:17:03;;;;;;;29.13;15.48;;;10.00;99.90;;;;;;2097634;28;20025;-76
2022/09/20 06:18:06;;;;;;;48.95;18.80;;;10.00;99.90;;;;;;2080853;28;20033;-75
2022/09/20 06:19:16;;;;;;;58.20;19.27;;;9.90;99.90;;;;;;2096133;28;20021;-72
2022/09/20 06:20:35;;;;;;;33.90;17.15;;;9.90;99.90;;;;;;2096094;28;20449;-72
2022/09/20 06:21:49;;;;;;;32.60;15.90;;;9.90;99.90;;;;;;2093952;28;20033;-74
2022/09/20 06:22:55;;;;;;;33.60;16.75;;;10.00;99.90;;;;;;2101657;28;20032;-73
2022/09/20 06:23:59;;;;;;;31.77;16.38;;;10.00;99.90;;;;;;2101583;28;20077;-72
2022/09/20 06:25:08;;;;;;;44.45;19.05;;;10.10;99.90;;;;;;2104589;28;20036;-72
2022/09/20 06:26:16;;;;;;;40.25;17.65;;;10.00;99.90;;;;;;2104471;28;20016;-74
2022/09/20 06:27:32;;;;;;;33.17;16.42;;;10.00;99.90;;;;;;2104865;28;20032;-74
2022/09/20 06:28:38;;;;;;;34.25;17.00;;;10.10;99.90;;;;;;2105466;28;20035;-76
2022/09/20 06:29:44;;;;;;;35.60;17.45;;;10.10;99.90;;;;;;2106430;28;20032;-74
2022/09/20 06:30:53;;;;;;;46.95;17.65;;;10.20;99.90;;;;;;2106436;28;20036;-73
2022/09/20 06:31:54;;;;;;;28.35;14.68;;;10.10;99.90;;;;;;2102647;28;20079;-73
2022/09/20 06:33:12;;;;;;;27.85;15.48;;;10.10;99.90;;;;;;2099089;28;20025;-72
2022/09/20 06:34:14;;;;;;;38.90;17.08;;;10.30;99.90;;;;;;2104066;28;20028;-73
2022/09/20 06:35:15;;;;;;;35.25;16.17;;;10.20;99.90;;;;;;2105345;28;21022;-72
2022/09/20 06:42:14;;;;;;;22.48;13.73;;;10.10;99.90;;;;;;2106183;28;20042;-73
2022/09/20 06:43:15;;;;;;;22.95;13.35;;;10.20;99.90;;;;;;2106152;28;20054;-73
2022/09/20 06:44:15;;;;;;;25.58;14.10;;;10.30;99.90;;;;;;2106159;28;20032;-73